Aeroporto :
LOGIN :

Iscrizione | Disclaimer

   EN    FR    IT 

 










Sommario :    VFR   VFR Marginale   IFR   IFR Intensivo   IFR Molto Intensivo
Visibilità : 
Base nubi : 
>= 8 km
>= 3000ft
5 / 8 km
1000 / 3000 ft
1500m / 5 km
500 / 1000 ft
800 / 1500m
200 / 500 ft
< 800m
< 200 ft
Simboli :   Temporali  Nebbia  Neve Forte  Precipitazioni Forti  Vento > 20 kt
SIGMETs :   Varie  Temporali  Ghiacco  Turbolenza  Onda orograficha  Ceneri Vulcaniche






- Altitudine del aeroporto : 13 ft
- Codice IATA : OST


EBOS - Oostend bruges Int.

ULTIMO METAR :
  • 151820Z 18010KT 9999 FEW025 06/03 Q1003 NOSIG

METARs OBSOLETI :
  • 151750Z 19011KT 9999 FEW018 SCT040 06/03 Q1003 NOSIG
  • 151720Z 20012KT 9999 FEW018 SCT040 06/03 Q1003 NOSIG
  • 151650Z 19012KT 9999 FEW018 SCT040 06/03 Q1002 NOSIG
  • 151620Z 21012KT 9999 FEW018 SCT040 07/04 Q1002 NOSIG
  • 151550Z 22014KT 9999 FEW018 SCT040 07/04 Q1002 NOSIG

TAF TAF EBOS
Valido dal 15 a 18 ore il 17 a 00 ore UTC


151710Z 1518/1624 18013KT 9999 FEW020
BECMG 1618/1620 BKN011
BECMG 1620/1623 10007KT
PROB40
TEMPO 1620/1624 4000 RA RADZ BKN007



MetMap, La meteo Aeronautica in un colpo d'occhio ! - Copyright ORBIFLY Dicembre 2007 - Disclaimer

ORBIFLY MET'MAP TEAM :

Programmazione e sviluppo : Alexandra Zaïnal
Concezione : Baudouin d'Aumeries
Aiuto per la programmazione : Marc-Olivier Méhu
Supporto tecnico e logistico : Manuel Goepfert
Aiuto per la traduzione : Arnaldo La Scala

Contatto : metmap@orbifly.com




FONTI E CREDITI :

   NOAA